sensor_id;sensor_type;location;lat;lon;timestamp;P1;durP1;ratioP1;P2;durP2;ratioP2
64615;SDS011;51027;42.162;24.754;2023-03-23T00:02:04;29.60;;;13.63;;
64615;SDS011;51027;42.162;24.754;2023-03-23T00:04:30;29.25;;;14.00;;
64615;SDS011;51027;42.162;24.754;2023-03-23T00:06:55;31.10;;;15.07;;
64615;SDS011;51027;42.162;24.754;2023-03-23T00:09:20;29.85;;;14.65;;
64615;SDS011;51027;42.162;24.754;2023-03-23T00:11:49;29.10;;;14.38;;
64615;SDS011;51027;42.162;24.754;2023-03-23T00:14:15;31.10;;;15.60;;
64615;SDS011;51027;42.162;24.754;2023-03-23T00:16:47;32.60;;;15.20;;
64615;SDS011;51027;42.162;24.754;2023-03-23T00:19:14;30.63;;;14.13;;
64615;SDS011;51027;42.162;24.754;2023-03-23T00:21:40;28.48;;;14.30;;
64615;SDS011;51027;42.162;24.754;2023-03-23T00:24:17;30.40;;;14.13;;
64615;SDS011;51027;42.162;24.754;2023-03-23T00:26:47;31.65;;;15.10;;
64615;SDS011;51027;42.162;24.754;2023-03-23T00:29:15;30.65;;;15.23;;
64615;SDS011;51027;42.162;24.754;2023-03-23T00:31:43;34.05;;;15.45;;
64615;SDS011;51027;42.162;24.754;2023-03-23T00:34:13;31.83;;;14.82;;
64615;SDS011;51027;42.162;24.754;2023-03-23T00:36:50;28.98;;;13.85;;
64615;SDS011;51027;42.162;24.754;2023-03-23T00:39:21;29.98;;;15.30;;
64615;SDS011;51027;42.162;24.754;2023-03-23T00:41:49;31.80;;;15.00;;
64615;SDS011;51027;42.162;24.754;2023-03-23T00:44:15;29.80;;;14.85;;
64615;SDS011;51027;42.162;24.754;2023-03-23T00:46:47;32.20;;;14.65;;
64615;SDS011;51027;42.162;24.754;2023-03-23T00:49:15;30.38;;;14.55;;
64615;SDS011;51027;42.162;24.754;2023-03-23T00:51:42;35.65;;;16.30;;
64615;SDS011;51027;42.162;24.754;2023-03-23T00:54:08;29.40;;;13.98;;
64615;SDS011;51027;42.162;24.754;2023-03-23T00:56:34;30.45;;;14.73;;
64615;SDS011;51027;42.162;24.754;2023-03-23T00:58:59;28.27;;;14.25;;
64615;SDS011;51027;42.162;24.754;2023-03-23T01:01:25;29.80;;;14.95;;
64615;SDS011;51027;42.162;24.754;2023-03-23T01:03:50;32.10;;;15.38;;
64615;SDS011;51027;42.162;24.754;2023-03-23T01:06:18;31.10;;;14.13;;
64615;SDS011;51027;42.162;24.754;2023-03-23T01:08:43;28.98;;;13.70;;
64615;SDS011;51027;42.162;24.754;2023-03-23T01:11:15;28.58;;;14.30;;
64615;SDS011;51027;42.162;24.754;2023-03-23T01:13:44;30.20;;;14.32;;
64615;SDS011;51027;42.162;24.754;2023-03-23T01:16:10;28.75;;;12.95;;
64615;SDS011;51027;42.162;24.754;2023-03-23T01:18:36;30.10;;;13.60;;
64615;SDS011;51027;42.162;24.754;2023-03-23T01:21:09;30.25;;;14.32;;
64615;SDS011;51027;42.162;24.754;2023-03-23T01:23:36;31.50;;;14.82;;
64615;SDS011;51027;42.162;24.754;2023-03-23T01:26:06;28.83;;;13.55;;
64615;SDS011;51027;42.162;24.754;2023-03-23T01:28:39;29.52;;;13.55;;
64615;SDS011;51027;42.162;24.754;2023-03-23T01:31:09;26.75;;;14.00;;
64615;SDS011;51027;42.162;24.754;2023-03-23T01:33:40;27.75;;;13.38;;
64615;SDS011;51027;42.162;24.754;2023-03-23T01:36:07;28.60;;;13.77;;
64615;SDS011;51027;42.162;24.754;2023-03-23T01:38:35;30.88;;;13.82;;
64615;SDS011;51027;42.162;24.754;2023-03-23T01:41:01;28.38;;;12.43;;
64615;SDS011;51027;42.162;24.754;2023-03-23T01:43:27;29.90;;;13.68;;
64615;SDS011;51027;42.162;24.754;2023-03-23T01:45:53;27.52;;;13.52;;
64615;SDS011;51027;42.162;24.754;2023-03-23T01:48:23;27.38;;;14.02;;
64615;SDS011;51027;42.162;24.754;2023-03-23T01:53:42;31.77;;;14.20;;
64615;SDS011;51027;42.162;24.754;2023-03-23T01:56:11;34.42;;;14.20;;
64615;SDS011;51027;42.162;24.754;2023-03-23T01:58:39;26.67;;;12.43;;
64615;SDS011;51027;42.162;24.754;2023-03-23T02:01:07;31.42;;;14.43;;
64615;SDS011;51027;42.162;24.754;2023-03-23T02:03:36;29.63;;;13.50;;
64615;SDS011;51027;42.162;24.754;2023-03-23T02:06:04;27.67;;;13.35;;
64615;SDS011;51027;42.162;24.754;2023-03-23T02:08:31;31.23;;;13.90;;
64615;SDS011;51027;42.162;24.754;2023-03-23T02:10:58;27.55;;;13.63;;
64615;SDS011;51027;42.162;24.754;2023-03-23T02:13:24;28.13;;;13.95;;
64615;SDS011;51027;42.162;24.754;2023-03-23T02:18:49;32.70;;;14.52;;
64615;SDS011;51027;42.162;24.754;2023-03-23T02:21:41;29.10;;;13.60;;
64615;SDS011;51027;42.162;24.754;2023-03-23T02:41:15;33.65;;;17.13;;
64615;SDS011;51027;42.162;24.754;2023-03-23T02:43:46;33.78;;;16.25;;
64615;SDS011;51027;42.162;24.754;2023-03-23T02:46:12;32.58;;;16.42;;
64615;SDS011;51027;42.162;24.754;2023-03-23T02:48:39;31.58;;;16.15;;
64615;SDS011;51027;42.162;24.754;2023-03-23T02:51:07;32.30;;;15.93;;
64615;SDS011;51027;42.162;24.754;2023-03-23T02:53:34;33.22;;;14.80;;
64615;SDS011;51027;42.162;24.754;2023-03-23T02:56:02;31.27;;;15.70;;
64615;SDS011;51027;42.162;24.754;2023-03-23T02:58:30;31.30;;;15.35;;
64615;SDS011;51027;42.162;24.754;2023-03-23T03:00:56;33.53;;;15.70;;
64615;SDS011;51027;42.162;24.754;2023-03-23T03:03:25;31.75;;;15.63;;
64615;SDS011;51027;42.162;24.754;2023-03-23T03:06:23;33.70;;;15.60;;
64615;SDS011;51027;42.162;24.754;2023-03-23T03:09:05;31.63;;;15.20;;
64615;SDS011;51027;42.162;24.754;2023-03-23T03:11:39;35.45;;;15.82;;
64615;SDS011;51027;42.162;24.754;2023-03-23T03:14:11;30.58;;;14.93;;
64615;SDS011;51027;42.162;24.754;2023-03-23T03:19:25;35.88;;;15.40;;
64615;SDS011;51027;42.162;24.754;2023-03-23T03:21:54;35.70;;;15.70;;
64615;SDS011;51027;42.162;24.754;2023-03-23T03:24:22;32.72;;;15.27;;
64615;SDS011;51027;42.162;24.754;2023-03-23T03:26:51;33.17;;;15.55;;
64615;SDS011;51027;42.162;24.754;2023-03-23T03:29:24;32.45;;;15.25;;
64615;SDS011;51027;42.162;24.754;2023-03-23T03:31:53;33.80;;;15.70;;
64615;SDS011;51027;42.162;24.754;2023-03-23T03:34:20;31.17;;;14.50;;
64615;SDS011;51027;42.162;24.754;2023-03-23T03:36:48;32.30;;;15.30;;
64615;SDS011;51027;42.162;24.754;2023-03-23T03:39:17;31.02;;;15.07;;
64615;SDS011;51027;42.162;24.754;2023-03-23T03:41:45;31.00;;;14.32;;
64615;SDS011;51027;42.162;24.754;2023-03-23T03:44:11;29.73;;;14.68;;
64615;SDS011;51027;42.162;24.754;2023-03-23T03:46:37;29.58;;;13.23;;
64615;SDS011;51027;42.162;24.754;2023-03-23T03:49:04;28.88;;;13.73;;
64615;SDS011;51027;42.162;24.754;2023-03-23T03:51:32;32.28;;;13.95;;
64615;SDS011;51027;42.162;24.754;2023-03-23T03:53:58;29.63;;;14.43;;
64615;SDS011;51027;42.162;24.754;2023-03-23T03:56:24;30.85;;;14.10;;
64615;SDS011;51027;42.162;24.754;2023-03-23T03:58:51;30.15;;;14.82;;
64615;SDS011;51027;42.162;24.754;2023-03-23T04:01:18;29.83;;;14.35;;
64615;SDS011;51027;42.162;24.754;2023-03-23T04:03:47;31.27;;;14.55;;
64615;SDS011;51027;42.162;24.754;2023-03-23T04:06:14;31.08;;;14.82;;
64615;SDS011;51027;42.162;24.754;2023-03-23T04:08:39;33.72;;;15.85;;
64615;SDS011;51027;42.162;24.754;2023-03-23T04:11:06;32.28;;;15.02;;
64615;SDS011;51027;42.162;24.754;2023-03-23T04:13:33;30.17;;;14.85;;
64615;SDS011;51027;42.162;24.754;2023-03-23T04:15:59;28.77;;;13.82;;
64615;SDS011;51027;42.162;24.754;2023-03-23T04:18:25;32.45;;;15.40;;
64615;SDS011;51027;42.162;24.754;2023-03-23T04:20:50;28.75;;;13.57;;
64615;SDS011;51027;42.162;24.754;2023-03-23T04:23:16;29.77;;;13.88;;
64615;SDS011;51027;42.162;24.754;2023-03-23T04:25:45;33.17;;;14.32;;
64615;SDS011;51027;42.162;24.754;2023-03-23T04:28:12;33.63;;;14.02;;
64615;SDS011;51027;42.162;24.754;2023-03-23T04:30:38;30.55;;;13.70;;
64615;SDS011;51027;42.162;24.754;2023-03-23T04:33:03;28.48;;;13.25;;
64615;SDS011;51027;42.162;24.754;2023-03-23T04:35:30;29.23;;;14.70;;
64615;SDS011;51027;42.162;24.754;2023-03-23T04:37:56;33.80;;;15.57;;
64615;SDS011;51027;42.162;24.754;2023-03-23T04:40:21;29.77;;;14.07;;
64615;SDS011;51027;42.162;24.754;2023-03-23T04:42:48;31.50;;;14.73;;
64615;SDS011;51027;42.162;24.754;2023-03-23T04:45:18;30.65;;;13.63;;
64615;SDS011;51027;42.162;24.754;2023-03-23T04:47:46;31.00;;;14.40;;
64615;SDS011;51027;42.162;24.754;2023-03-23T04:50:18;30.35;;;13.65;;
64615;SDS011;51027;42.162;24.754;2023-03-23T04:52:45;31.10;;;13.50;;
64615;SDS011;51027;42.162;24.754;2023-03-23T04:55:12;30.45;;;14.65;;
64615;SDS011;51027;42.162;24.754;2023-03-23T04:57:38;29.75;;;13.95;;
64615;SDS011;51027;42.162;24.754;2023-03-23T05:00:04;32.20;;;15.65;;
64615;SDS011;51027;42.162;24.754;2023-03-23T05:02:35;29.80;;;14.63;;
64615;SDS011;51027;42.162;24.754;2023-03-23T05:05:06;32.45;;;14.73;;
64615;SDS011;51027;42.162;24.754;2023-03-23T05:07:33;33.67;;;15.70;;
64615;SDS011;51027;42.162;24.754;2023-03-23T05:09:58;32.40;;;15.25;;
64615;SDS011;51027;42.162;24.754;2023-03-23T05:12:24;28.08;;;14.70;;
64615;SDS011;51027;42.162;24.754;2023-03-23T05:14:49;29.58;;;14.35;;
64615;SDS011;51027;42.162;24.754;2023-03-23T05:17:15;33.40;;;15.27;;
64615;SDS011;51027;42.162;24.754;2023-03-23T05:19:44;35.65;;;14.35;;
64615;SDS011;51027;42.162;24.754;2023-03-23T05:22:13;32.33;;;15.82;;
64615;SDS011;51027;42.162;24.754;2023-03-23T05:24:39;35.03;;;16.30;;
64615;SDS011;51027;42.162;24.754;2023-03-23T05:27:07;34.97;;;17.50;;
64615;SDS011;51027;42.162;24.754;2023-03-23T05:29:36;34.08;;;17.20;;
64615;SDS011;51027;42.162;24.754;2023-03-23T05:32:04;34.47;;;16.58;;
64615;SDS011;51027;42.162;24.754;2023-03-23T05:34:30;33.85;;;16.95;;
64615;SDS011;51027;42.162;24.754;2023-03-23T05:36:59;32.78;;;15.32;;
64615;SDS011;51027;42.162;24.754;2023-03-23T05:39:26;34.03;;;15.95;;
64615;SDS011;51027;42.162;24.754;2023-03-23T05:41:51;35.63;;;17.48;;
64615;SDS011;51027;42.162;24.754;2023-03-23T05:44:17;34.50;;;16.00;;
64615;SDS011;51027;42.162;24.754;2023-03-23T05:46:44;34.50;;;15.73;;
64615;SDS011;51027;42.162;24.754;2023-03-23T05:49:10;34.50;;;13.80;;
64615;SDS011;51027;42.162;24.754;2023-03-23T05:51:35;33.35;;;14.40;;
64615;SDS011;51027;42.162;24.754;2023-03-23T05:54:01;35.72;;;17.13;;
64615;SDS011;51027;42.162;24.754;2023-03-23T05:56:28;32.20;;;15.18;;
64615;SDS011;51027;42.162;24.754;2023-03-23T05:58:55;34.05;;;15.63;;
64615;SDS011;51027;42.162;24.754;2023-03-23T06:01:20;31.45;;;15.23;;
64615;SDS011;51027;42.162;24.754;2023-03-23T06:03:46;33.42;;;15.98;;
64615;SDS011;51027;42.162;24.754;2023-03-23T06:06:14;29.02;;;14.45;;
64615;SDS011;51027;42.162;24.754;2023-03-23T06:08:39;38.25;;;18.33;;
64615;SDS011;51027;42.162;24.754;2023-03-23T06:11:04;35.83;;;17.00;;
64615;SDS011;51027;42.162;24.754;2023-03-23T06:13:31;30.60;;;15.65;;
64615;SDS011;51027;42.162;24.754;2023-03-23T06:15:57;41.75;;;19.10;;
64615;SDS011;51027;42.162;24.754;2023-03-23T06:18:22;33.38;;;15.63;;
64615;SDS011;51027;42.162;24.754;2023-03-23T06:20:48;36.40;;;16.02;;
64615;SDS011;51027;42.162;24.754;2023-03-23T06:23:15;34.33;;;15.32;;
64615;SDS011;51027;42.162;24.754;2023-03-23T06:25:42;34.58;;;17.52;;
64615;SDS011;51027;42.162;24.754;2023-03-23T06:28:08;38.22;;;16.65;;
64615;SDS011;51027;42.162;24.754;2023-03-23T06:30:34;35.08;;;17.70;;
64615;SDS011;51027;42.162;24.754;2023-03-23T06:33:00;37.90;;;18.63;;
64615;SDS011;51027;42.162;24.754;2023-03-23T06:35:27;38.90;;;19.08;;
64615;SDS011;51027;42.162;24.754;2023-03-23T06:37:52;40.50;;;18.88;;
64615;SDS011;51027;42.162;24.754;2023-03-23T06:40:19;40.50;;;19.17;;
64615;SDS011;51027;42.162;24.754;2023-03-23T06:42:44;35.78;;;16.33;;
64615;SDS011;51027;42.162;24.754;2023-03-23T06:45:10;38.95;;;17.10;;
64615;SDS011;51027;42.162;24.754;2023-03-23T06:47:36;39.88;;;19.15;;
64615;SDS011;51027;42.162;24.754;2023-03-23T06:50:01;35.90;;;17.27;;
64615;SDS011;51027;42.162;24.754;2023-03-23T06:52:27;40.05;;;17.95;;
64615;SDS011;51027;42.162;24.754;2023-03-23T06:54:52;36.90;;;17.05;;
64615;SDS011;51027;42.162;24.754;2023-03-23T06:57:18;31.63;;;17.10;;
64615;SDS011;51027;42.162;24.754;2023-03-23T06:59:44;33.53;;;16.63;;
64615;SDS011;51027;42.162;24.754;2023-03-23T07:02:11;35.80;;;17.60;;
64615;SDS011;51027;42.162;24.754;2023-03-23T07:04:38;35.67;;;17.80;;
64615;SDS011;51027;42.162;24.754;2023-03-23T07:07:05;30.80;;;15.00;;
64615;SDS011;51027;42.162;24.754;2023-03-23T07:09:33;30.10;;;13.98;;
64615;SDS011;51027;42.162;24.754;2023-03-23T07:11:58;31.35;;;15.38;;
64615;SDS011;51027;42.162;24.754;2023-03-23T07:14:24;35.83;;;17.15;;
64615;SDS011;51027;42.162;24.754;2023-03-23T07:16:50;34.05;;;15.90;;
64615;SDS011;51027;42.162;24.754;2023-03-23T07:19:16;35.28;;;16.67;;
64615;SDS011;51027;42.162;24.754;2023-03-23T07:21:41;33.22;;;15.40;;
64615;SDS011;51027;42.162;24.754;2023-03-23T07:24:10;30.45;;;14.80;;
64615;SDS011;51027;42.162;24.754;2023-03-23T07:26:38;29.77;;;14.10;;
64615;SDS011;51027;42.162;24.754;2023-03-23T07:29:07;33.17;;;15.82;;
64615;SDS011;51027;42.162;24.754;2023-03-23T07:31:34;29.23;;;15.02;;
64615;SDS011;51027;42.162;24.754;2023-03-23T07:34:00;31.73;;;15.23;;
64615;SDS011;51027;42.162;24.754;2023-03-23T07:36:27;29.88;;;13.60;;
64615;SDS011;51027;42.162;24.754;2023-03-23T07:38:53;30.50;;;14.63;;
64615;SDS011;51027;42.162;24.754;2023-03-23T07:41:19;34.78;;;16.02;;
64615;SDS011;51027;42.162;24.754;2023-03-23T07:43:45;34.83;;;14.88;;
64615;SDS011;51027;42.162;24.754;2023-03-23T07:46:11;30.48;;;15.00;;
64615;SDS011;51027;42.162;24.754;2023-03-23T07:48:36;29.52;;;14.18;;
64615;SDS011;51027;42.162;24.754;2023-03-23T07:51:02;32.97;;;15.23;;
64615;SDS011;51027;42.162;24.754;2023-03-23T07:53:28;31.70;;;14.75;;
64615;SDS011;51027;42.162;24.754;2023-03-23T07:55:54;28.80;;;14.20;;
64615;SDS011;51027;42.162;24.754;2023-03-23T07:58:19;30.10;;;14.77;;
64615;SDS011;51027;42.162;24.754;2023-03-23T08:00:46;31.02;;;14.77;;
64615;SDS011;51027;42.162;24.754;2023-03-23T08:03:13;30.38;;;15.18;;
64615;SDS011;51027;42.162;24.754;2023-03-23T08:05:40;28.75;;;14.73;;
64615;SDS011;51027;42.162;24.754;2023-03-23T08:08:07;26.95;;;13.23;;
64615;SDS011;51027;42.162;24.754;2023-03-23T08:10:33;27.52;;;13.57;;
64615;SDS011;51027;42.162;24.754;2023-03-23T08:12:58;24.65;;;12.75;;
64615;SDS011;51027;42.162;24.754;2023-03-23T08:15:24;25.25;;;11.60;;
64615;SDS011;51027;42.162;24.754;2023-03-23T08:17:51;20.08;;;9.60;;
64615;SDS011;51027;42.162;24.754;2023-03-23T08:20:17;19.90;;;9.80;;
64615;SDS011;51027;42.162;24.754;2023-03-23T08:22:45;20.75;;;9.45;;
64615;SDS011;51027;42.162;24.754;2023-03-23T08:25:17;23.35;;;11.25;;
64615;SDS011;51027;42.162;24.754;2023-03-23T08:27:44;21.75;;;11.00;;
64615;SDS011;51027;42.162;24.754;2023-03-23T08:30:11;21.95;;;11.43;;
64615;SDS011;51027;42.162;24.754;2023-03-23T08:32:38;22.92;;;10.30;;
64615;SDS011;51027;42.162;24.754;2023-03-23T08:35:05;21.08;;;10.57;;
64615;SDS011;51027;42.162;24.754;2023-03-23T08:37:32;21.85;;;10.00;;
64615;SDS011;51027;42.162;24.754;2023-03-23T08:39:57;22.25;;;10.75;;
64615;SDS011;51027;42.162;24.754;2023-03-23T08:42:23;21.83;;;10.82;;
64615;SDS011;51027;42.162;24.754;2023-03-23T08:44:50;21.55;;;9.57;;
64615;SDS011;51027;42.162;24.754;2023-03-23T08:47:16;18.33;;;8.63;;
64615;SDS011;51027;42.162;24.754;2023-03-23T08:49:42;22.15;;;9.02;;
64615;SDS011;51027;42.162;24.754;2023-03-23T08:52:08;20.55;;;9.02;;
64615;SDS011;51027;42.162;24.754;2023-03-23T08:54:34;20.25;;;9.30;;
64615;SDS011;51027;42.162;24.754;2023-03-23T08:57:00;20.63;;;9.63;;
64615;SDS011;51027;42.162;24.754;2023-03-23T08:59:26;20.70;;;9.23;;
64615;SDS011;51027;42.162;24.754;2023-03-23T09:01:52;20.02;;;9.68;;
64615;SDS011;51027;42.162;24.754;2023-03-23T09:04:19;19.70;;;9.05;;
64615;SDS011;51027;42.162;24.754;2023-03-23T09:06:46;22.02;;;9.35;;
64615;SDS011;51027;42.162;24.754;2023-03-23T09:09:11;21.63;;;9.30;;
64615;SDS011;51027;42.162;24.754;2023-03-23T09:11:37;20.23;;;9.02;;
64615;SDS011;51027;42.162;24.754;2023-03-23T09:14:04;21.25;;;9.48;;
64615;SDS011;51027;42.162;24.754;2023-03-23T09:16:31;20.60;;;9.93;;
64615;SDS011;51027;42.162;24.754;2023-03-23T09:18:57;19.88;;;9.82;;
64615;SDS011;51027;42.162;24.754;2023-03-23T09:21:24;19.88;;;9.30;;
64615;SDS011;51027;42.162;24.754;2023-03-23T09:23:50;19.65;;;7.90;;
64615;SDS011;51027;42.162;24.754;2023-03-23T09:26:16;19.83;;;8.45;;
64615;SDS011;51027;42.162;24.754;2023-03-23T09:28:42;19.83;;;9.60;;
64615;SDS011;51027;42.162;24.754;2023-03-23T09:31:09;21.63;;;9.50;;
64615;SDS011;51027;42.162;24.754;2023-03-23T09:33:36;20.63;;;9.82;;
64615;SDS011;51027;42.162;24.754;2023-03-23T09:36:02;22.17;;;9.60;;
64615;SDS011;51027;42.162;24.754;2023-03-23T09:38:30;20.67;;;10.10;;
64615;SDS011;51027;42.162;24.754;2023-03-23T09:49:30;20.17;;;9.13;;
64615;SDS011;51027;42.162;24.754;2023-03-23T09:52:01;23.83;;;9.75;;
64615;SDS011;51027;42.162;24.754;2023-03-23T09:54:35;22.92;;;10.65;;
64615;SDS011;51027;42.162;24.754;2023-03-23T09:57:03;20.92;;;9.50;;
64615;SDS011;51027;42.162;24.754;2023-03-23T10:03:15;20.33;;;9.07;;
64615;SDS011;51027;42.162;24.754;2023-03-23T10:05:38;17.92;;;7.03;;
64615;SDS011;51027;42.162;24.754;2023-03-23T10:08:13;15.52;;;5.53;;
64615;SDS011;51027;42.162;24.754;2023-03-23T10:19:20;16.10;;;6.43;;
64615;SDS011;51027;42.162;24.754;2023-03-23T10:21:52;15.95;;;5.90;;
64615;SDS011;51027;42.162;24.754;2023-03-23T10:24:43;15.55;;;5.80;;
64615;SDS011;51027;42.162;24.754;2023-03-23T10:27:26;15.52;;;6.10;;
64615;SDS011;51027;42.162;24.754;2023-03-23T10:30:24;14.55;;;5.90;;
64615;SDS011;51027;42.162;24.754;2023-03-23T10:35:56;15.85;;;6.30;;
64615;SDS011;51027;42.162;24.754;2023-03-23T10:38:26;14.65;;;5.82;;
64615;SDS011;51027;42.162;24.754;2023-03-23T10:41:01;16.65;;;6.90;;
64615;SDS011;51027;42.162;24.754;2023-03-23T10:43:31;16.33;;;6.80;;
64615;SDS011;51027;42.162;24.754;2023-03-23T10:46:02;17.70;;;7.40;;
64615;SDS011;51027;42.162;24.754;2023-03-23T10:48:37;17.30;;;7.28;;
64615;SDS011;51027;42.162;24.754;2023-03-23T10:51:04;16.30;;;6.75;;
64615;SDS011;51027;42.162;24.754;2023-03-23T10:53:35;13.88;;;5.40;;
64615;SDS011;51027;42.162;24.754;2023-03-23T10:56:03;15.13;;;5.50;;
64615;SDS011;51027;42.162;24.754;2023-03-23T10:58:31;14.23;;;5.78;;
64615;SDS011;51027;42.162;24.754;2023-03-23T11:00:59;16.08;;;6.65;;
64615;SDS011;51027;42.162;24.754;2023-03-23T11:06:05;15.07;;;6.05;;
64615;SDS011;51027;42.162;24.754;2023-03-23T11:08:34;15.48;;;5.68;;
64615;SDS011;51027;42.162;24.754;2023-03-23T11:13:38;14.75;;;5.38;;
64615;SDS011;51027;42.162;24.754;2023-03-23T11:16:07;13.77;;;5.15;;
64615;SDS011;51027;42.162;24.754;2023-03-23T11:18:37;13.57;;;4.55;;
64615;SDS011;51027;42.162;24.754;2023-03-23T11:21:03;12.00;;;4.55;;
64615;SDS011;51027;42.162;24.754;2023-03-23T11:23:38;13.60;;;5.03;;
64615;SDS011;51027;42.162;24.754;2023-03-23T11:26:13;14.32;;;4.72;;
64615;SDS011;51027;42.162;24.754;2023-03-23T11:31:16;12.27;;;4.60;;
64615;SDS011;51027;42.162;24.754;2023-03-23T11:36:07;14.25;;;5.13;;
64615;SDS011;51027;42.162;24.754;2023-03-23T11:38:33;13.05;;;4.65;;
64615;SDS011;51027;42.162;24.754;2023-03-23T11:40:59;14.38;;;5.57;;
64615;SDS011;51027;42.162;24.754;2023-03-23T11:43:25;15.02;;;5.57;;
64615;SDS011;51027;42.162;24.754;2023-03-23T11:46:05;15.75;;;6.70;;
64615;SDS011;51027;42.162;24.754;2023-03-23T11:48:40;18.15;;;7.07;;
64615;SDS011;51027;42.162;24.754;2023-03-23T11:51:17;16.45;;;6.82;;
64615;SDS011;51027;42.162;24.754;2023-03-23T11:53:49;17.73;;;6.90;;
64615;SDS011;51027;42.162;24.754;2023-03-23T11:56:29;17.33;;;7.63;;
64615;SDS011;51027;42.162;24.754;2023-03-23T11:58:58;21.25;;;7.90;;
64615;SDS011;51027;42.162;24.754;2023-03-23T12:01:29;18.33;;;7.05;;
64615;SDS011;51027;42.162;24.754;2023-03-23T12:09:24;17.45;;;7.35;;
64615;SDS011;51027;42.162;24.754;2023-03-23T12:30:26;16.15;;;6.40;;
64615;SDS011;51027;42.162;24.754;2023-03-23T12:49:08;17.63;;;6.25;;
64615;SDS011;51027;42.162;24.754;2023-03-23T13:08:56;13.80;;;4.70;;
64615;SDS011;51027;42.162;24.754;2023-03-23T13:11:33;12.73;;;4.68;;
64615;SDS011;51027;42.162;24.754;2023-03-23T13:14:09;13.38;;;4.25;;
64615;SDS011;51027;42.162;24.754;2023-03-23T13:22:01;15.05;;;4.75;;
64615;SDS011;51027;42.162;24.754;2023-03-23T13:24:59;13.00;;;4.32;;
64615;SDS011;51027;42.162;24.754;2023-03-23T13:29:55;12.10;;;4.10;;
64615;SDS011;51027;42.162;24.754;2023-03-23T13:32:27;13.43;;;4.25;;
64615;SDS011;51027;42.162;24.754;2023-03-23T13:35:05;16.08;;;4.75;;
64615;SDS011;51027;42.162;24.754;2023-03-23T13:37:46;10.57;;;4.43;;
64615;SDS011;51027;42.162;24.754;2023-03-23T13:42:57;12.55;;;4.35;;
64615;SDS011;51027;42.162;24.754;2023-03-23T13:50:59;13.82;;;4.82;;
64615;SDS011;51027;42.162;24.754;2023-03-23T13:53:45;14.48;;;4.63;;
64615;SDS011;51027;42.162;24.754;2023-03-23T13:56:25;12.95;;;4.30;;
64615;SDS011;51027;42.162;24.754;2023-03-23T13:59:14;12.88;;;4.75;;
64615;SDS011;51027;42.162;24.754;2023-03-23T14:01:42;13.52;;;4.95;;
64615;SDS011;51027;42.162;24.754;2023-03-23T14:04:17;13.88;;;4.60;;
64615;SDS011;51027;42.162;24.754;2023-03-23T14:06:44;11.90;;;4.55;;
64615;SDS011;51027;42.162;24.754;2023-03-23T14:11:51;13.55;;;4.90;;
64615;SDS011;51027;42.162;24.754;2023-03-23T14:14:23;12.02;;;4.40;;
64615;SDS011;51027;42.162;24.754;2023-03-23T14:16:52;13.50;;;4.43;;
64615;SDS011;51027;42.162;24.754;2023-03-23T14:19:22;14.05;;;4.63;;
64615;SDS011;51027;42.162;24.754;2023-03-23T14:21:53;12.02;;;4.38;;
64615;SDS011;51027;42.162;24.754;2023-03-23T14:24:24;12.37;;;4.70;;
64615;SDS011;51027;42.162;24.754;2023-03-23T14:29:34;12.82;;;4.35;;
64615;SDS011;51027;42.162;24.754;2023-03-23T14:32:00;12.25;;;4.30;;
64615;SDS011;51027;42.162;24.754;2023-03-23T14:34:27;13.70;;;4.50;;
64615;SDS011;51027;42.162;24.754;2023-03-23T14:36:54;13.52;;;4.85;;
64615;SDS011;51027;42.162;24.754;2023-03-23T14:39:27;13.70;;;4.75;;
64615;SDS011;51027;42.162;24.754;2023-03-23T14:42:01;13.55;;;4.65;;
64615;SDS011;51027;42.162;24.754;2023-03-23T14:44:32;13.50;;;4.47;;
64615;SDS011;51027;42.162;24.754;2023-03-23T14:47:03;13.85;;;4.80;;
64615;SDS011;51027;42.162;24.754;2023-03-23T14:49:35;13.40;;;5.20;;
64615;SDS011;51027;42.162;24.754;2023-03-23T14:52:13;12.98;;;4.50;;
64615;SDS011;51027;42.162;24.754;2023-03-23T14:54:41;16.50;;;5.82;;
64615;SDS011;51027;42.162;24.754;2023-03-23T14:57:15;14.70;;;5.10;;
64615;SDS011;51027;42.162;24.754;2023-03-23T14:59:43;15.15;;;4.85;;
64615;SDS011;51027;42.162;24.754;2023-03-23T15:05:13;13.73;;;4.38;;
64615;SDS011;51027;42.162;24.754;2023-03-23T15:07:42;12.05;;;4.13;;
64615;SDS011;51027;42.162;24.754;2023-03-23T15:10:14;12.38;;;4.65;;
64615;SDS011;51027;42.162;24.754;2023-03-23T15:12:43;12.35;;;4.45;;
64615;SDS011;51027;42.162;24.754;2023-03-23T15:15:24;13.43;;;4.47;;
64615;SDS011;51027;42.162;24.754;2023-03-23T15:17:55;13.50;;;4.78;;
64615;SDS011;51027;42.162;24.754;2023-03-23T15:23:13;12.85;;;4.90;;
64615;SDS011;51027;42.162;24.754;2023-03-23T15:25:46;13.85;;;4.65;;
64615;SDS011;51027;42.162;24.754;2023-03-23T15:28:20;14.20;;;5.28;;
64615;SDS011;51027;42.162;24.754;2023-03-23T15:30:49;14.60;;;5.63;;
64615;SDS011;51027;42.162;24.754;2023-03-23T15:33:17;15.57;;;5.85;;
64615;SDS011;51027;42.162;24.754;2023-03-23T15:35:48;14.75;;;4.63;;
64615;SDS011;51027;42.162;24.754;2023-03-23T15:38:17;14.98;;;5.30;;
64615;SDS011;51027;42.162;24.754;2023-03-23T15:40:43;14.13;;;4.85;;
64615;SDS011;51027;42.162;24.754;2023-03-23T15:43:17;16.48;;;6.35;;
64615;SDS011;51027;42.162;24.754;2023-03-23T15:51:11;13.70;;;4.95;;
64615;SDS011;51027;42.162;24.754;2023-03-23T15:53:38;13.43;;;4.65;;
64615;SDS011;51027;42.162;24.754;2023-03-23T15:56:05;14.18;;;5.13;;
64615;SDS011;51027;42.162;24.754;2023-03-23T15:58:33;15.15;;;5.35;;
64615;SDS011;51027;42.162;24.754;2023-03-23T16:01:02;15.85;;;5.32;;
64615;SDS011;51027;42.162;24.754;2023-03-23T16:06:27;14.63;;;5.25;;
64615;SDS011;51027;42.162;24.754;2023-03-23T16:08:55;16.02;;;6.20;;
64615;SDS011;51027;42.162;24.754;2023-03-23T16:11:22;15.73;;;6.15;;
64615;SDS011;51027;42.162;24.754;2023-03-23T16:13:49;15.80;;;5.68;;
64615;SDS011;51027;42.162;24.754;2023-03-23T16:18:41;16.25;;;5.88;;
64615;SDS011;51027;42.162;24.754;2023-03-23T16:21:07;16.58;;;6.38;;
64615;SDS011;51027;42.162;24.754;2023-03-23T16:23:33;17.73;;;6.63;;
64615;SDS011;51027;42.162;24.754;2023-03-23T16:25:58;17.17;;;5.38;;
64615;SDS011;51027;42.162;24.754;2023-03-23T16:28:24;16.83;;;6.30;;
64615;SDS011;51027;42.162;24.754;2023-03-23T16:30:49;16.58;;;6.75;;
64615;SDS011;51027;42.162;24.754;2023-03-23T16:33:15;16.35;;;6.45;;
64615;SDS011;51027;42.162;24.754;2023-03-23T16:35:40;18.33;;;7.18;;
64615;SDS011;51027;42.162;24.754;2023-03-23T16:38:09;15.70;;;6.05;;
64615;SDS011;51027;42.162;24.754;2023-03-23T16:40:38;19.48;;;7.07;;
64615;SDS011;51027;42.162;24.754;2023-03-23T16:43:04;21.70;;;7.82;;
64615;SDS011;51027;42.162;24.754;2023-03-23T16:45:29;17.33;;;7.28;;
64615;SDS011;51027;42.162;24.754;2023-03-23T16:47:55;19.58;;;7.90;;
64615;SDS011;51027;42.162;24.754;2023-03-23T16:50:25;18.38;;;8.80;;
64615;SDS011;51027;42.162;24.754;2023-03-23T16:52:52;19.58;;;7.57;;
64615;SDS011;51027;42.162;24.754;2023-03-23T16:55:18;17.77;;;6.63;;
64615;SDS011;51027;42.162;24.754;2023-03-23T16:57:43;17.45;;;7.32;;